createdAt,value
2023-04-22T00:02:24.429Z,9.93
2023-04-22T00:04:51.621Z,8.23
2023-04-22T00:07:19.047Z,7.20
2023-04-22T00:09:45.905Z,11.65
2023-04-22T00:12:12.794Z,6.03
2023-04-22T00:14:39.871Z,7.47
2023-04-22T00:17:07.023Z,9.20
2023-04-22T00:19:34.557Z,11.85
2023-04-22T00:22:01.674Z,7.88
2023-04-22T00:24:28.733Z,7.95
2023-04-22T00:26:55.571Z,9.80
2023-04-22T00:29:22.351Z,9.15
2023-04-22T00:31:49.349Z,9.25
2023-04-22T00:34:17.832Z,11.25
2023-04-22T00:36:46.037Z,7.97
2023-04-22T00:39:13.946Z,11.40
2023-04-22T00:41:40.910Z,10.50
2023-04-22T00:44:11.275Z,8.93
2023-04-22T00:46:39.656Z,7.97
2023-04-22T00:49:08.014Z,9.30
2023-04-22T00:51:35.168Z,8.57
2023-04-22T00:54:02.179Z,11.52
2023-04-22T00:56:31.626Z,10.23
2023-04-22T00:58:59.030Z,12.25
2023-04-22T01:01:26.555Z,12.45
2023-04-22T01:03:53.951Z,10.35
2023-04-22T01:06:22.011Z,9.40
2023-04-22T01:08:48.887Z,18.35
2023-04-22T01:11:16.145Z,14.23
2023-04-22T01:13:43.069Z,8.00
2023-04-22T01:16:10.901Z,9.18
2023-04-22T01:18:37.904Z,7.10
2023-04-22T01:21:05.748Z,11.98
2023-04-22T01:23:33.485Z,6.47
2023-04-22T01:26:00.409Z,9.73
2023-04-22T01:28:27.327Z,11.30
2023-04-22T01:30:54.157Z,9.95
2023-04-22T01:33:21.044Z,12.13
2023-04-22T01:35:47.960Z,9.95
2023-04-22T01:38:14.832Z,7.38
2023-04-22T01:40:41.730Z,11.98
2023-04-22T01:43:08.585Z,10.25
2023-04-22T01:45:36.211Z,10.40
2023-04-22T01:48:03.997Z,6.28
2023-04-22T01:50:30.883Z,8.90
2023-04-22T01:52:57.704Z,10.48
2023-04-22T01:55:24.543Z,8.82
2023-04-22T01:57:52.274Z,9.73
2023-04-22T02:00:19.192Z,10.45
2023-04-22T02:05:12.791Z,9.20
2023-04-22T02:07:39.576Z,10.77
2023-04-22T02:10:07.356Z,11.20
2023-04-22T02:12:34.187Z,7.57
2023-04-22T02:15:01.278Z,16.42
2023-04-22T02:17:28.675Z,9.00
2023-04-22T02:19:55.542Z,9.15
2023-04-22T02:22:23.838Z,12.82
2023-04-22T02:24:50.711Z,9.43
2023-04-22T02:27:17.558Z,14.82
2023-04-22T02:29:44.344Z,7.18
2023-04-22T02:32:11.176Z,10.65
2023-04-22T02:34:37.930Z,8.20
2023-04-22T02:37:05.429Z,10.50
2023-04-22T02:39:32.202Z,9.20
2023-04-22T02:41:58.963Z,11.80
2023-04-22T02:44:25.896Z,9.32
2023-04-22T02:46:52.872Z,12.05
2023-04-22T02:49:19.730Z,11.52
2023-04-22T02:51:46.515Z,10.13
2023-04-22T02:54:13.332Z,9.13
2023-04-22T02:56:40.097Z,12.15
2023-04-22T02:59:06.860Z,11.40
2023-04-22T03:01:33.806Z,9.00
2023-04-22T03:04:00.861Z,10.07
2023-04-22T03:06:27.948Z,9.45
2023-04-22T03:08:54.714Z,15.60
2023-04-22T03:11:21.523Z,14.50
2023-04-22T03:13:48.280Z,11.35
2023-04-22T03:16:18.220Z,9.20
2023-04-22T03:18:45.049Z,14.05
2023-04-22T03:21:11.813Z,9.27
2023-04-22T03:23:38.566Z,9.82
2023-04-22T03:26:05.459Z,9.93
2023-04-22T03:28:32.258Z,11.65
2023-04-22T03:30:59.034Z,10.75
2023-04-22T03:33:25.794Z,10.63
2023-04-22T03:35:53.512Z,12.13
2023-04-22T03:38:20.277Z,10.00
2023-04-22T03:40:47.078Z,10.52
2023-04-22T03:43:13.874Z,9.82
2023-04-22T03:45:40.761Z,10.60
2023-04-22T03:48:07.742Z,8.60
2023-04-22T03:50:34.640Z,10.73
2023-04-22T03:53:01.450Z,11.35
2023-04-22T03:55:28.249Z,7.75
2023-04-22T03:57:55.277Z,8.65
2023-04-22T04:00:22.167Z,8.07
2023-04-22T04:02:49.009Z,9.57
2023-04-22T04:05:16.161Z,9.70
2023-04-22T04:07:43.021Z,8.55
2023-04-22T04:10:10.849Z,8.25
2023-04-22T04:12:37.679Z,11.07
2023-04-22T04:15:05.103Z,9.88
2023-04-22T04:17:31.893Z,12.02
2023-04-22T04:19:58.659Z,15.10
2023-04-22T04:22:25.594Z,10.73
2023-04-22T04:24:52.374Z,14.00
2023-04-22T04:27:19.140Z,8.35
2023-04-22T04:29:45.880Z,12.20
2023-04-22T04:32:12.692Z,16.17
2023-04-22T04:34:39.588Z,12.32
2023-04-22T04:37:06.412Z,9.90
2023-04-22T04:39:33.561Z,11.73
2023-04-22T04:42:00.399Z,9.45
2023-04-22T04:44:27.452Z,14.57
2023-04-22T04:46:57.769Z,8.45
2023-04-22T04:49:24.643Z,11.95
2023-04-22T04:51:51.436Z,9.80
2023-04-22T04:54:18.350Z,17.48
2023-04-22T04:56:45.133Z,10.90
2023-04-22T04:59:11.953Z,9.07
2023-04-22T05:01:39.086Z,13.77
2023-04-22T05:04:06.462Z,11.95
2023-04-22T05:06:33.686Z,14.30
2023-04-22T05:09:00.527Z,9.90
2023-04-22T05:11:27.316Z,9.68
2023-04-22T05:13:54.055Z,10.52
2023-04-22T05:16:20.961Z,10.45
2023-04-22T05:18:47.828Z,13.45
2023-04-22T05:21:15.910Z,11.23
2023-04-22T05:23:42.661Z,12.38
2023-04-22T05:26:09.429Z,10.60
2023-04-22T05:28:36.220Z,13.55
2023-04-22T05:31:03.002Z,9.38
2023-04-22T05:33:29.775Z,9.15
2023-04-22T05:35:56.615Z,9.02
2023-04-22T05:38:23.413Z,10.70
2023-04-22T05:40:50.188Z,9.30
2023-04-22T05:43:16.940Z,9.63
2023-04-22T05:45:43.929Z,10.73
2023-04-22T05:48:10.798Z,12.85
2023-04-22T05:50:37.643Z,10.65
2023-04-22T05:53:07.522Z,9.25
2023-04-22T05:55:34.913Z,8.80
2023-04-22T05:58:01.707Z,9.18
2023-04-22T06:00:29.373Z,12.07
2023-04-22T06:02:56.385Z,12.13
2023-04-22T06:05:23.524Z,7.88
2023-04-22T06:07:50.628Z,8.88
2023-04-22T06:10:17.441Z,9.43
2023-04-22T06:12:44.242Z,11.65
2023-04-22T06:15:12.081Z,8.45
2023-04-22T06:17:39.532Z,9.32
2023-04-22T06:20:07.295Z,13.00
2023-04-22T06:22:34.076Z,7.38
2023-04-22T06:25:00.891Z,10.52
2023-04-22T06:27:27.689Z,9.25
2023-04-22T06:29:54.461Z,12.25
2023-04-22T06:32:21.392Z,7.97
2023-04-22T06:34:48.296Z,8.07
2023-04-22T06:37:15.176Z,8.13
2023-04-22T06:39:42.174Z,8.10
2023-04-22T06:42:09.133Z,9.32
2023-04-22T06:44:36.004Z,11.75
2023-04-22T06:47:02.886Z,9.40
2023-04-22T06:49:30.020Z,10.40
2023-04-22T06:51:56.772Z,7.20
2023-04-22T06:54:23.564Z,8.05
2023-04-22T06:56:50.437Z,7.68
2023-04-22T06:59:17.383Z,7.78
2023-04-22T07:01:44.156Z,9.70
2023-04-22T07:04:11.010Z,7.22
2023-04-22T07:06:37.836Z,8.70
2023-04-22T07:09:04.646Z,9.15
2023-04-22T07:11:31.636Z,11.80
2023-04-22T07:13:58.603Z,10.57
2023-04-22T07:16:26.674Z,8.60
2023-04-22T07:18:53.481Z,9.20
2023-04-22T07:21:20.508Z,8.55
2023-04-22T07:23:47.294Z,8.55
2023-04-22T07:26:14.125Z,9.45
2023-04-22T07:28:41.007Z,10.55
2023-04-22T07:31:07.814Z,12.23
2023-04-22T07:33:34.554Z,10.52
2023-04-22T07:36:01.614Z,8.63
2023-04-22T07:38:28.474Z,8.23
2023-04-22T07:40:55.211Z,5.50
2023-04-22T07:43:21.997Z,5.15
2023-04-22T07:45:48.817Z,5.45
2023-04-22T07:48:15.654Z,7.43
2023-04-22T07:50:42.465Z,7.47
2023-04-22T07:53:10.764Z,8.30
2023-04-22T07:55:37.610Z,7.53
2023-04-22T07:58:06.510Z,6.07
2023-04-22T08:00:35.121Z,8.13
2023-04-22T08:03:03.429Z,12.15
2023-04-22T08:05:30.370Z,7.63
2023-04-22T08:07:57.193Z,8.35
2023-04-22T08:10:24.315Z,10.00
2023-04-22T08:12:51.304Z,9.73
2023-04-22T08:15:18.209Z,6.05
2023-04-22T08:17:45.001Z,6.40
2023-04-22T08:20:12.332Z,6.18
2023-04-22T08:22:39.182Z,8.45
2023-04-22T08:25:06.761Z,8.27
2023-04-22T08:27:33.584Z,7.57
2023-04-22T08:30:00.412Z,7.95
2023-04-22T08:32:27.585Z,6.93
2023-04-22T08:35:03.603Z,7.20
2023-04-22T08:37:31.534Z,7.35
2023-04-22T08:39:58.383Z,7.35
2023-04-22T08:42:26.886Z,8.25
2023-04-22T08:44:54.809Z,3.83
2023-04-22T08:47:22.018Z,4.93
2023-04-22T08:49:51.748Z,4.30
2023-04-22T08:52:18.760Z,5.95
2023-04-22T08:54:45.971Z,4.28
2023-04-22T08:57:14.888Z,4.35
2023-04-22T08:59:42.056Z,4.32
2023-04-22T09:02:17.942Z,10.05
2023-04-22T09:04:50.480Z,4.57
2023-04-22T09:07:25.027Z,6.70
2023-04-22T09:09:53.043Z,5.10
2023-04-22T09:12:19.842Z,3.15
2023-04-22T09:14:46.799Z,7.47
2023-04-22T09:17:18.776Z,6.15
2023-04-22T09:19:46.011Z,4.40
2023-04-22T09:22:16.497Z,5.40
2023-04-22T09:24:53.105Z,4.32
2023-04-22T09:27:24.212Z,5.80
2023-04-22T09:29:52.682Z,6.97
2023-04-22T09:32:19.770Z,12.63
2023-04-22T09:34:52.152Z,3.47
2023-04-22T09:37:30.844Z,2.90
2023-04-22T09:40:04.191Z,3.37
2023-04-22T09:42:31.004Z,4.10
2023-04-22T09:45:01.206Z,3.05
2023-04-22T09:47:36.504Z,5.07
2023-04-22T09:50:05.011Z,6.50
2023-04-22T09:52:33.180Z,10.68
2023-04-22T09:54:59.986Z,8.77
2023-04-22T09:57:27.693Z,8.18
2023-04-22T09:59:58.825Z,11.10
2023-04-22T10:02:30.105Z,5.00
2023-04-22T10:04:58.461Z,6.68
2023-04-22T10:07:31.251Z,3.95
2023-04-22T10:09:58.426Z,5.35
2023-04-22T10:12:35.156Z,4.22
2023-04-22T10:15:07.205Z,3.67
2023-04-22T10:17:37.610Z,4.20
2023-04-22T10:20:13.634Z,5.78
2023-04-22T10:22:42.806Z,6.63
2023-04-22T10:25:28.509Z,7.38
2023-04-22T10:28:07.811Z,3.88
2023-04-22T10:30:39.171Z,7.13
2023-04-22T10:33:21.087Z,4.40
2023-04-22T10:36:07.981Z,5.75
2023-04-22T10:38:54.893Z,4.95
2023-04-22T10:41:35.654Z,6.47
2023-04-22T10:44:07.106Z,4.90
2023-04-22T10:46:45.181Z,4.82
2023-04-22T10:49:24.154Z,5.00
2023-04-22T10:51:53.248Z,5.05
2023-04-22T10:54:31.800Z,6.50
2023-04-22T10:57:09.064Z,6.78
2023-04-22T10:59:48.802Z,6.57
2023-04-22T11:02:17.623Z,7.07
2023-04-22T11:04:44.519Z,3.33
2023-04-22T11:07:26.779Z,3.40
2023-04-22T11:10:05.441Z,4.57
2023-04-22T11:12:35.290Z,6.13
2023-04-22T11:15:09.484Z,8.50
2023-04-22T11:17:37.789Z,4.93
2023-04-22T11:20:07.078Z,2.90
2023-04-22T11:22:40.816Z,5.78
2023-04-22T11:25:10.139Z,5.40
2023-04-22T11:27:39.126Z,6.70
2023-04-22T11:30:17.419Z,5.85
2023-04-22T11:32:53.846Z,4.13
2023-04-22T11:35:29.677Z,5.45
2023-04-22T11:38:08.544Z,4.18
2023-04-22T11:40:46.462Z,4.95
2023-04-22T11:43:14.214Z,7.18
2023-04-22T11:45:41.259Z,4.68
2023-04-22T11:48:11.198Z,7.32
2023-04-22T11:50:40.664Z,3.40
2023-04-22T11:53:19.881Z,5.95
2023-04-22T11:55:53.508Z,5.20
2023-04-22T11:58:28.072Z,5.25
2023-04-22T12:00:57.953Z,3.88
2023-04-22T12:03:30.094Z,4.30
2023-04-22T12:06:06.454Z,2.92
2023-04-22T12:08:41.919Z,2.80
2023-04-22T12:11:10.586Z,4.82
2023-04-22T12:13:37.263Z,1.90
2023-04-22T12:16:06.563Z,1.52
2023-04-22T12:18:38.096Z,1.00
2023-04-22T12:21:07.587Z,4.05
2023-04-22T12:23:48.413Z,3.70
2023-04-22T12:26:17.799Z,1.52
2023-04-22T12:28:46.014Z,1.58
2023-04-22T12:31:15.304Z,1.80
2023-04-22T12:33:42.954Z,1.58
2023-04-22T12:36:09.980Z,2.65
2023-04-22T12:38:37.567Z,3.05
2023-04-22T12:41:06.309Z,2.47
2023-04-22T12:43:36.351Z,3.35
2023-04-22T12:46:04.773Z,2.53
2023-04-22T12:48:34.630Z,3.22
2023-04-22T12:51:01.383Z,1.25
2023-04-22T12:53:28.576Z,2.72
2023-04-22T12:55:56.112Z,1.38
2023-04-22T12:58:22.925Z,1.85
2023-04-22T13:00:49.717Z,1.48
2023-04-22T13:03:16.621Z,2.10
2023-04-22T13:05:45.308Z,2.90
2023-04-22T13:08:12.265Z,6.88
2023-04-22T13:10:39.024Z,3.15
2023-04-22T13:13:16.988Z,2.58
2023-04-22T13:15:47.716Z,4.80
2023-04-22T13:18:16.437Z,5.20
2023-04-22T13:20:43.483Z,1.95
2023-04-22T13:23:10.459Z,3.55
2023-04-22T13:25:37.308Z,3.40
2023-04-22T13:28:04.107Z,3.35
2023-04-22T13:30:30.862Z,4.15
2023-04-22T13:32:57.661Z,2.00
2023-04-22T13:35:24.821Z,3.55
2023-04-22T13:37:51.585Z,4.35
2023-04-22T13:40:18.843Z,2.35
2023-04-22T13:42:45.638Z,2.60
2023-04-22T13:45:12.529Z,3.80
2023-04-22T13:47:39.363Z,2.95
2023-04-22T13:50:07.254Z,2.40
2023-04-22T13:52:35.014Z,4.72
2023-04-22T13:55:03.796Z,1.48
2023-04-22T13:57:30.631Z,4.15
2023-04-22T13:59:57.531Z,2.08
2023-04-22T14:02:24.427Z,3.13
2023-04-22T14:04:51.339Z,1.40
2023-04-22T14:07:18.465Z,1.65
2023-04-22T14:09:45.234Z,1.40
2023-04-22T14:12:12.205Z,1.48
2023-04-22T14:14:39.139Z,2.60
2023-04-22T14:17:09.037Z,1.90
2023-04-22T14:19:39.394Z,1.83
2023-04-22T14:22:06.520Z,6.53
2023-04-22T14:24:33.472Z,1.75
2023-04-22T14:27:01.674Z,3.08
2023-04-22T14:29:29.762Z,1.52
2023-04-22T14:31:57.757Z,2.42
2023-04-22T14:34:24.615Z,1.55
2023-04-22T14:36:51.434Z,1.17
2023-04-22T14:39:18.231Z,2.50
2023-04-22T14:41:45.291Z,1.83
2023-04-22T14:44:12.086Z,6.57
2023-04-22T14:46:38.949Z,4.82
2023-04-22T14:49:06.026Z,3.65
2023-04-22T14:51:32.849Z,3.67
2023-04-22T14:53:59.680Z,4.45
2023-04-22T14:56:26.711Z,2.40
2023-04-22T14:58:53.476Z,1.38
2023-04-22T15:01:21.423Z,1.77
2023-04-22T15:03:48.830Z,2.03
2023-04-22T15:06:16.172Z,2.22
2023-04-22T15:08:42.989Z,1.10
2023-04-22T15:11:09.733Z,1.63
2023-04-22T15:13:36.637Z,1.13
2023-04-22T15:16:03.468Z,2.55
2023-04-22T15:18:30.343Z,5.07
2023-04-22T15:20:57.141Z,3.30
2023-04-22T15:23:24.102Z,1.88
2023-04-22T15:25:50.920Z,1.27
2023-04-22T15:28:17.718Z,1.75
2023-04-22T15:30:44.480Z,3.53
2023-04-22T15:33:11.380Z,1.45
2023-04-22T15:35:38.171Z,1.42
2023-04-22T15:38:05.759Z,1.70
2023-04-22T15:40:32.572Z,2.53
2023-04-22T15:42:59.348Z,1.95
2023-04-22T15:45:26.114Z,4.55
2023-04-22T15:47:53.661Z,3.22
2023-04-22T15:50:23.102Z,2.78
2023-04-22T15:52:49.860Z,3.70
2023-04-22T15:55:16.680Z,1.77
2023-04-22T15:57:43.473Z,1.52
2023-04-22T16:00:13.471Z,1.13
2023-04-22T16:02:42.821Z,2.35
2023-04-22T16:05:11.250Z,3.55
2023-04-22T16:07:38.040Z,5.03
2023-04-22T16:10:05.378Z,2.30
2023-04-22T16:12:34.004Z,1.58
2023-04-22T16:15:01.405Z,1.60
2023-04-22T16:17:28.269Z,2.20
2023-04-22T16:19:55.346Z,1.10
2023-04-22T16:22:22.157Z,1.45
2023-04-22T16:24:48.971Z,4.25
2023-04-22T16:27:17.901Z,3.63
2023-04-22T16:29:45.331Z,3.90
2023-04-22T16:32:12.155Z,2.00
2023-04-22T16:34:39.018Z,3.00
2023-04-22T16:37:06.410Z,1.20
2023-04-22T16:39:33.414Z,1.88
2023-04-22T16:42:00.278Z,1.65
2023-04-22T16:44:27.101Z,4.22
2023-04-22T16:46:53.880Z,1.02
2023-04-22T16:49:21.010Z,3.22
2023-04-22T16:51:48.336Z,2.88
2023-04-22T16:54:15.203Z,2.30
2023-04-22T16:56:42.002Z,1.35
2023-04-22T16:59:08.837Z,1.70
2023-04-22T17:01:36.078Z,3.38
2023-04-22T17:04:03.162Z,3.33
2023-04-22T17:06:30.050Z,2.33
2023-04-22T17:08:56.839Z,2.65
2023-04-22T17:11:24.047Z,1.35
2023-04-22T17:13:51.366Z,1.80
2023-04-22T17:16:18.791Z,3.65
2023-04-22T17:18:46.908Z,2.85
2023-04-22T17:21:13.900Z,1.77
2023-04-22T17:23:40.787Z,2.35
2023-04-22T17:26:07.598Z,5.43
2023-04-22T17:28:34.652Z,1.58
2023-04-22T17:31:01.472Z,1.17
2023-04-22T17:33:29.088Z,1.33
2023-04-22T17:35:56.279Z,1.10
2023-04-22T17:38:23.149Z,1.42
2023-04-22T17:40:49.937Z,1.63
2023-04-22T17:43:16.736Z,4.82
2023-04-22T17:45:46.234Z,1.55
2023-04-22T17:48:13.037Z,2.42
2023-04-22T17:50:39.821Z,1.48
2023-04-22T17:53:06.640Z,1.38
2023-04-22T17:55:35.184Z,4.63
2023-04-22T17:58:03.133Z,1.60
2023-04-22T18:00:31.518Z,3.03
2023-04-22T18:02:58.516Z,1.90
2023-04-22T18:05:26.981Z,0.93
2023-04-22T18:08:04.312Z,1.70
2023-04-22T18:10:31.492Z,2.75
2023-04-22T18:12:58.308Z,4.45
2023-04-22T18:15:25.231Z,2.10
2023-04-22T18:17:52.121Z,3.35
2023-04-22T18:20:19.720Z,1.02
2023-04-22T18:22:48.444Z,1.33
2023-04-22T18:25:15.867Z,1.58
2023-04-22T18:27:42.644Z,1.15
2023-04-22T18:30:09.948Z,1.75
2023-04-22T18:32:37.600Z,2.05
2023-04-22T18:35:05.166Z,1.02
2023-04-22T18:37:34.243Z,1.92
2023-04-22T18:40:01.046Z,1.58
2023-04-22T18:42:27.849Z,4.07
2023-04-22T18:44:54.593Z,3.42
2023-04-22T18:47:21.439Z,2.38
2023-04-22T18:49:48.317Z,1.92
2023-04-22T18:52:17.016Z,1.45
2023-04-22T18:54:44.013Z,1.55
2023-04-22T18:57:11.132Z,2.35
2023-04-22T18:59:37.930Z,3.40
2023-04-22T19:02:05.853Z,1.55
2023-04-22T19:04:32.776Z,2.92
2023-04-22T19:06:59.652Z,1.27
2023-04-22T19:09:26.461Z,5.78
2023-04-22T19:11:53.337Z,4.95
2023-04-22T19:14:20.446Z,6.25
2023-04-22T19:16:47.229Z,1.80
2023-04-22T19:19:16.534Z,2.15
2023-04-22T19:21:44.364Z,2.45
2023-04-22T19:24:13.530Z,1.60
2023-04-22T19:26:41.110Z,1.15
2023-04-22T19:29:08.749Z,3.17
2023-04-22T19:31:35.592Z,7.15
2023-04-22T19:34:02.882Z,4.93
2023-04-22T19:36:29.630Z,6.20
2023-04-22T19:38:56.408Z,4.10
2023-04-22T19:41:23.941Z,1.67
2023-04-22T19:43:51.125Z,1.42
2023-04-22T19:46:17.918Z,5.20
2023-04-22T19:48:44.968Z,2.75
2023-04-22T19:51:11.820Z,3.63
2023-04-22T19:53:41.108Z,3.88
2023-04-22T19:56:09.310Z,3.63
2023-04-22T19:58:36.399Z,2.67
2023-04-22T20:01:04.077Z,2.47
2023-04-22T20:03:31.296Z,3.38
2023-04-22T20:06:00.262Z,1.65
2023-04-22T20:08:28.055Z,2.90
2023-04-22T20:10:55.601Z,3.05
2023-04-22T20:13:22.789Z,1.45
2023-04-22T20:15:50.150Z,1.92
2023-04-22T20:18:17.619Z,2.55
2023-04-22T20:20:47.887Z,1.75
2023-04-22T20:23:16.711Z,4.07
2023-04-22T20:25:44.505Z,1.67
2023-04-22T20:28:11.624Z,1.70
2023-04-22T20:30:39.132Z,7.10
2023-04-22T20:33:06.277Z,2.85
2023-04-22T20:35:35.585Z,4.07
2023-04-22T20:38:03.184Z,6.82
2023-04-22T20:40:30.594Z,2.22
2023-04-22T20:43:00.677Z,3.10
2023-04-22T20:45:27.743Z,2.28
2023-04-22T20:47:54.601Z,8.65
2023-04-22T20:50:21.500Z,5.97
2023-04-22T20:52:48.974Z,6.63
2023-04-22T20:55:16.741Z,2.53
2023-04-22T20:57:43.520Z,2.53
2023-04-22T21:00:11.379Z,2.58
2023-04-22T21:02:39.575Z,3.25
2023-04-22T21:05:07.443Z,2.55
2023-04-22T21:07:35.350Z,2.75
2023-04-22T21:10:02.375Z,4.68
2023-04-22T21:12:29.439Z,4.55
2023-04-22T21:14:56.926Z,3.53
2023-04-22T21:17:29.962Z,3.28
2023-04-22T21:19:58.150Z,3.63
2023-04-22T21:22:25.654Z,2.53
2023-04-22T21:24:53.584Z,3.33
2023-04-22T21:27:21.869Z,2.22
2023-04-22T21:29:49.541Z,9.48
2023-04-22T21:32:17.252Z,5.20
2023-04-22T21:34:44.746Z,3.38
2023-04-22T21:37:21.752Z,3.88
2023-04-22T21:39:48.497Z,4.82
2023-04-22T21:42:15.443Z,3.47
2023-04-22T21:44:49.255Z,5.50
2023-04-22T21:47:16.309Z,4.03
2023-04-22T21:49:43.282Z,2.50
2023-04-22T21:52:10.039Z,2.83
2023-04-22T21:54:36.827Z,2.60
2023-04-22T21:57:03.881Z,4.57
2023-04-22T21:59:31.385Z,3.65
2023-04-22T22:01:58.373Z,3.83
2023-04-22T22:04:25.468Z,6.20
2023-04-22T22:06:52.272Z,3.05
2023-04-22T22:09:19.146Z,5.32
2023-04-22T22:11:48.616Z,4.30
2023-04-22T22:14:15.431Z,3.92
2023-04-22T22:16:42.449Z,6.60
2023-04-22T22:19:10.380Z,5.05
2023-04-22T22:21:37.763Z,4.97
2023-04-22T22:24:04.586Z,3.22
2023-04-22T22:26:31.366Z,4.85
2023-04-22T22:28:58.929Z,2.85
2023-04-22T22:31:25.871Z,4.25
2023-04-22T22:33:52.771Z,2.30
2023-04-22T22:36:19.997Z,2.40
2023-04-22T22:38:46.904Z,4.15
2023-04-22T22:41:14.130Z,3.75
2023-04-22T22:43:40.944Z,3.88
2023-04-22T22:46:07.839Z,2.67
2023-04-22T22:48:34.921Z,4.40
2023-04-22T22:51:01.678Z,3.50
2023-04-22T22:53:28.428Z,3.33
2023-04-22T22:55:55.187Z,5.13
2023-04-22T22:58:21.950Z,5.35
2023-04-22T23:00:48.741Z,7.13
2023-04-22T23:03:17.043Z,2.53
2023-04-22T23:05:46.057Z,3.20
2023-04-22T23:08:13.249Z,3.58
2023-04-22T23:10:40.060Z,3.22
2023-04-22T23:13:06.849Z,4.78
2023-04-22T23:15:33.799Z,2.65
2023-04-22T23:18:00.686Z,6.53
2023-04-22T23:20:27.709Z,2.78
2023-04-22T23:22:54.679Z,6.28
2023-04-22T23:25:22.102Z,6.43
2023-04-22T23:27:49.636Z,2.47
2023-04-22T23:30:16.814Z,3.58
2023-04-22T23:32:46.722Z,4.20
2023-04-22T23:35:14.011Z,3.55
2023-04-22T23:37:47.944Z,7.47
2023-04-22T23:40:14.749Z,7.43
2023-04-22T23:42:41.503Z,2.97
2023-04-22T23:45:09.303Z,2.20
2023-04-22T23:47:36.135Z,3.50
2023-04-22T23:50:03.502Z,2.10
2023-04-22T23:52:30.330Z,2.20
2023-04-22T23:54:57.668Z,1.65
2023-04-22T23:57:24.748Z,2.33
2023-04-22T23:59:51.789Z,2.42
